Aviation Digital Data Service (ADDS)

Output produced by METARs form (0338 UTC 24 February 2017)
found at http://www.aviationweather.gov/adds/metars/
 
UTAA 240300Z 30007KT 9999 FEW100 SCT233 05/00 Q1017 R30L/CLRD70 NOSIG
TAF UTAA 232230Z 2400/2424 30014KT 5000 BKN030 SCT050CB 530009 
     TEMPO 2400/2406 20010KT 3000 HZ 
     BECMG 2406/2408 10014KT SCT050
       
UTAK 240300Z 18014KT 9999 SCT008 BKN200 07/05 Q1015 R16R/19//60 BECMG 3000 BR BKN004
TAF UTAK 232230Z 2323/2424 25014G24KT 1500 BR BKN003 BKN100 530002 
     TEMPO 2323/2406 18014KT 0300 FG DZ VV001 
     BECMG 2406/2407 5000 BKN012 BKN100 
     TEMPO 2407/2412 2500 BR BKN004 
     TEMPO 2412/2424 30018KT BKN006
       
UTAM 240300Z 10004KT 6000 SCT060CB SCT060 BKN100 04/02 Q1017 NOSIG RMK SC07
TAF UTAM 232230Z 2323/2424 29016KT 3000 BR -SHRA BKN020 SCT030CB 530003 
     TEMPO 2323/2403 13014KT 0800 FG VV003 
     TEMPO 2403/2412 30014G24KT 4000 -RA BKN010
       
UTAT 240300Z 25008KT CAVOK 04/M01 Q1014 R26/CLRD70 NOSIG
TAF UTAT 232232Z 2400/2424 27016KT 5000 BR OVC020 530002 
     TEMPO 2400/2406 21012KT 0700 FZFG VV002 
     TEMPO 2406/2412 26016KT
       
UTAV 240300Z 00000KT CAVOK 03/02 Q1018
TAF UTAV 232230Z 2400/2424 01014KT 5000 SCT030CB OVC070 650300 530003 550300 
     TEMPO 2400/2403 19010KT 1500 BR BKN005 
     TEMPO 2405/2413 29016G26KT 2000 BLDU 570002 
     PROB40 
     TEMPO 2405/2411 TSSHRA BKN006 
     BECMG 2415/2417 03010KT 3000 BR SCT007 530001 
     TEMPO 2417/2424 VRBO4KT 0400 FG VV002
       
UTDD 240330Z 05003MPS 010V080 9999 NSC 06/M07 Q1023 R09/D NOSIG RMK QFE698/0931
TAF UTDD 240300Z 2404/2416 VRB02MPS 6000 FEW066 SCT150 
     TEMPO 2404/2416 09005MPS
       
UTDK 240330Z 02003MPS 9999 NSC 07/M04 Q1022 R01/09//70 RMK QFE709/0945
TAF UTDK 240300Z 2404/2413 VRB02MPS 6000 FEW066 SCT150 
     TEMPO 2407/2413 21005MPS
       
UTDL 240330Z 08010MPS 9999 FEW150 OVC200 02/M06 Q1023 88CLRD70 NOSIG RMK QFE727/0970
TAF UTDL 240300Z 2404/2413 07009MPS 6000 NSC 
     TEMPO 2404/2410 07010GG15MPS FEW060CB
       
UTDT 240330Z 27002MPS 190V310 9999 BKN160 04/M00 Q1021 35CLRD70 RMK QFE726/0968
TAF UTDT 240300Z 2404/2413 VRB02MPS 6000 FEW066 SCT150 
     TEMPO 2404/2413 18005MPS
       
UTFA 240300Z 23001KT 1200 BR NSC M02/M04 Q1024 R88/09//70
TAF UTFA 240010Z 2401/2410 09010KT 2100 BR NSC 
     TEMPO 2401/2406 VRB02KT 0800 FZFG SCT010
       
UTFF 240300Z 13003KT 9999 NSC 00/M04 Q1023 R18/CLRD70
TAF UTFF 240300Z 2404/2413 33010KT 9999 NSC 
     TEMPO 2404/2409 04008KT 4000 BR FEW050
       
UTFN 240300Z 34002KT 9999 NSC 01/M06 Q1023 R28/CLRD70 NOSIG
TAF UTFN 232300Z 2400/2424 33010KT 9999 NSC 
     TEMPO 2400/2405 14008KT 2500 BR FEW050
       
UTNN 240300Z 21006KT CAVOK 03/M01 Q1014 R15/CLRD60 NOSIG
TAF UTNN 232300Z 2400/2424 VRB04KT CAVOK 
     TEMPO 2402/2405 1100 BR OVC002 
     TEMPO 2405/2412 16012KT
       
UTNU 240300Z 18008KT 9000 NSC 05/M00 Q1015 R31/CLRD70 NOSIG
TAF AMD UTNU 240140Z 2401/2424 22010G20KT 6000 BKN050 BKN100 
     TEMPO 2401/2407 24016KT 2000 BR BKN020 OVC100
       
UTSA 240300Z 09010KT 7000 NSC 04/01 Q1017 R07/CLRD70 NOSIG
TAF UTSA 232301Z 2400/2424 VRB03KT 7000 NSC 
     TEMPO 2400/2406 12012KT 3500 BR FU 
     TEMPO 2406/2418 17012G22KT SCT050CB BKN100
       
UTSB 240300Z VRB02KT CAVOK 03/02 Q1017 R01/?LRD70 NOSIG
TAF UTSB 232300Z 2400/2424 VRB03KT 7000 NSC 
     TEMPO 2400/2406 15012KT 3500 BR 
     TEMPO 2406/2418 18012G22KT SCT050CB BKN100
       
UTSK 240300Z 35004KT 280V360 CAVOK 06/M00 Q1016 R16/CLRD70
TAF UTSK 240250Z 2404/2413 16010G20KT 8000 SCT033CB BKN100 
     TEMPO 2404/2410 24010G20KT 
     TEMPO 2410/2413 32014G24KT 1500 TSRA BR BKN005 BKN026CB
       
UTSS 240300Z VRB02KT 9999 NSC 05/M02 Q1017 R09/70D NOSIG
TAF UTSS 232300Z 2400/2424 12010G20KT 7000 SCT033CB BKN100 
     TEMPO 2400/2403 2500 BR 
     TEMPO 2403/2412 24010G20KT
       
UTST 240300Z 03008KT CAVOK 05/M01 Q1020 R88/CLRD70 NOSIG
TAF UTST 232300Z 2400/2424 03008G18KT 5000 BR SCT050CB BKN100 
     TEMPO 2400/2406 1000 BR 
     TEMPO 2406/2409 06012G22KT BKN050CB BKN100 
     TEMPO 2409/2421 26012G22KT 3000 -SHRA BR BKN004 OVC040CB
       
UTTT 240300Z 07008KT CAVOK 06/M06 Q1018 R08R/CLRD70 NOSIG
TAF UTTT 232300Z 2400/2424 08012KT 7000 NSC 
     TEMPO 2412/2424 22010G20KT -SHRA SCT040CB BKN100
       
UTSB 240300Z VRB02KT CAVOK 03/02 Q1017 R01/?LRD70 NOSIG
TAF UTSB 232300Z 2400/2424 VRB03KT 7000 NSC 
     TEMPO 2400/2406 15012KT 3500 BR 
     TEMPO 2406/2418 18012G22KT SCT050CB BKN100
       
UTSK 240300Z 35004KT 280V360 CAVOK 06/M00 Q1016 R16/CLRD70
TAF UTSK 240250Z 2404/2413 16010G20KT 8000 SCT033CB BKN100 
     TEMPO 2404/2410 24010G20KT 
     TEMPO 2410/2413 32014G24KT 1500 TSRA BR BKN005 BKN026CB
       
UTSS 240300Z VRB02KT 9999 NSC 05/M02 Q1017 R09/70D NOSIG
TAF UTSS 232300Z 2400/2424 12010G20KT 7000 SCT033CB BKN100 
     TEMPO 2400/2403 2500 BR 
     TEMPO 2403/2412 24010G20KT
       
UTST 240300Z 03008KT CAVOK 05/M01 Q1020 R88/CLRD70 NOSIG
TAF UTST 232300Z 2400/2424 03008G18KT 5000 BR SCT050CB BKN100 
     TEMPO 2400/2406 1000 BR 
     TEMPO 2406/2409 06012G22KT BKN050CB BKN100 
     TEMPO 2409/2421 26012G22KT 3000 -SHRA BR BKN004 OVC040CB
       
UTNU 240300Z 18008KT 9000 NSC 05/M00 Q1015 R31/CLRD70 NOSIG
TAF AMD UTNU 240140Z 2401/2424 22010G20KT 6000 BKN050 BKN100 
     TEMPO 2401/2407 24016KT 2000 BR BKN020 OVC100
       
UTTT 240300Z 07008KT CAVOK 06/M06 Q1018 R08R/CLRD70 NOSIG
TAF UTTT 232300Z 2400/2424 08012KT 7000 NSC 
     TEMPO 2412/2424 22010G20KT -SHRA SCT040CB BKN100